BTI699 EKVG-EETN
Flight info
| Callsign | BTI699 |
|---|---|
| Flight time | 2h 4m |
| Altitude | 33000 |
| Route | LUVE1A LUVEK BOBLO UTRUF AKVOW OSMUR OSMU1L |
| Aircraft | A20N/M-SDE2E3FGHIJ1RWXY/LB1 |
Departure
| Time | 2026-05-07 12:31 |
|---|---|
| Airport | Vágar Airport (EKVG) |
Arrival
| Time | 2026-05-07 14:35 |
|---|---|
| Airport | Lennart Meri Tallinn Airport (EETN) |
| Time | Latitude | Longitude | Altitude | Speed | Heading |
|---|---|---|---|---|---|
| 2026-05-07 12:15 | 62.06686 | -7.27921 | 264 ft | 0 kts | 27° |
| 2026-05-07 12:25 | 62.06670 | -7.27941 | 264 ft | 4 kts | 40° |
| 2026-05-07 12:25 | 62.06654 | -7.27983 | 264 ft | 4 kts | 75° |
| 2026-05-07 12:25 | 62.06653 | -7.28037 | 264 ft | 4 kts | 109° |
| 2026-05-07 12:26 | 62.06665 | -7.28087 | 265 ft | 4 kts | 127° |
| 2026-05-07 12:26 | 62.06683 | -7.28131 | 265 ft | 4 kts | 133° |
| 2026-05-07 12:26 | 62.06701 | -7.28173 | 266 ft | 3 kts | 125° |
| 2026-05-07 12:26 | 62.06702 | -7.28179 | 266 ft | 2 kts | 123° |
| 2026-05-07 12:29 | 62.06698 | -7.28166 | 266 ft | 6 kts | 123° |
| 2026-05-07 12:29 | 62.06582 | -7.28067 | 264 ft | 28 kts | 185° |
| 2026-05-07 12:29 | 62.06483 | -7.28185 | 265 ft | 13 kts | 245° |
| 2026-05-07 12:30 | 62.06596 | -7.28705 | 269 ft | 67 kts | 298° |
| 2026-05-07 12:30 | 62.06699 | -7.29176 | 273 ft | 9 kts | 310° |
| 2026-05-07 12:30 | 62.06711 | -7.29174 | 273 ft | 1 kts | 39° |
| 2026-05-07 12:30 | 62.06706 | -7.29144 | 276 ft | 12 kts | 111° |
| 2026-05-07 12:31 | 62.06428 | -7.28016 | 264 ft | 122 kts | 118° |
| 2026-05-07 12:31 | 62.06070 | -7.26733 | 426 ft | 169 kts | 116° |
| 2026-05-07 12:31 | 62.05481 | -7.24603 | 1973 ft | 162 kts | 112° |
| 2026-05-07 12:31 | 62.04945 | -7.22395 | 3245 ft | 178 kts | 111° |
| 2026-05-07 12:32 | 62.04385 | -7.19896 | 4433 ft | 194 kts | 113° |
| 2026-05-07 12:32 | 62.03774 | -7.17198 | 5611 ft | 209 kts | 116° |
| 2026-05-07 12:32 | 62.03100 | -7.14347 | 6834 ft | 222 kts | 118° |
| 2026-05-07 12:32 | 62.02356 | -7.11354 | 8024 ft | 234 kts | 120° |
| 2026-05-07 12:33 | 62.01172 | -7.04606 | 10344 ft | 257 kts | 109° |
| 2026-05-07 12:33 | 62.00739 | -7.00741 | 11117 ft | 280 kts | 108° |
| 2026-05-07 12:33 | 62.00341 | -6.96528 | 11914 ft | 300 kts | 106° |
| 2026-05-07 12:34 | 61.99964 | -6.92024 | 12764 ft | 318 kts | 104° |
| 2026-05-07 12:34 | 61.99599 | -6.87241 | 13610 ft | 334 kts | 104° |
| 2026-05-07 12:34 | 61.99238 | -6.82278 | 14354 ft | 349 kts | 103° |
| 2026-05-07 12:34 | 61.99016 | -6.76985 | 15053 ft | 367 kts | 98° |
| 2026-05-07 12:35 | 61.98943 | -6.71434 | 15809 ft | 382 kts | 96° |
| 2026-05-07 12:35 | 61.98938 | -6.65680 | 16623 ft | 393 kts | 94° |
| 2026-05-07 12:35 | 61.98971 | -6.59812 | 17570 ft | 400 kts | 94° |
| 2026-05-07 12:35 | 61.99025 | -6.53901 | 18431 ft | 407 kts | 93° |
| 2026-05-07 12:36 | 61.99091 | -6.47804 | 19151 ft | 416 kts | 93° |
| 2026-05-07 12:36 | 61.99167 | -6.41579 | 19888 ft | 424 kts | 93° |
| 2026-05-07 12:36 | 61.99248 | -6.35238 | 20620 ft | 432 kts | 93° |
| 2026-05-07 12:36 | 61.99332 | -6.28765 | 21325 ft | 440 kts | 93° |
| 2026-05-07 12:37 | 61.99416 | -6.22298 | 22013 ft | 447 kts | 94° |
| 2026-05-07 12:37 | 61.99500 | -6.15628 | 22705 ft | 455 kts | 94° |
| 2026-05-07 12:37 | 61.99583 | -6.08834 | 23362 ft | 462 kts | 94° |
| 2026-05-07 12:37 | 61.99664 | -6.01933 | 23929 ft | 469 kts | 94° |
| 2026-05-07 12:38 | 61.99742 | -5.94926 | 24486 ft | 475 kts | 94° |
| 2026-05-07 12:38 | 61.99817 | -5.87920 | 25036 ft | 482 kts | 94° |
| 2026-05-07 12:38 | 61.99890 | -5.80739 | 25580 ft | 488 kts | 94° |
| 2026-05-07 12:38 | 61.99961 | -5.73441 | 26105 ft | 494 kts | 94° |
| 2026-05-07 12:39 | 62.00029 | -5.66077 | 26681 ft | 499 kts | 94° |
| 2026-05-07 12:39 | 62.00097 | -5.58692 | 27438 ft | 499 kts | 94° |
| 2026-05-07 12:39 | 62.00160 | -5.51361 | 28107 ft | 501 kts | 94° |
| 2026-05-07 12:39 | 62.00219 | -5.43931 | 28792 ft | 503 kts | 94° |
| 2026-05-07 12:40 | 62.00276 | -5.36441 | 29473 ft | 505 kts | 95° |
| 2026-05-07 12:40 | 62.00328 | -5.28924 | 30108 ft | 507 kts | 95° |
| 2026-05-07 12:40 | 62.00370 | -5.21487 | 30748 ft | 505 kts | 94° |
| 2026-05-07 12:40 | 62.00402 | -5.13997 | 31429 ft | 503 kts | 94° |
| 2026-05-07 12:41 | 62.00429 | -5.06615 | 32107 ft | 502 kts | 93° |
| 2026-05-07 12:41 | 62.00452 | -4.99178 | 32635 ft | 493 kts | 93° |
| 2026-05-07 12:41 | 62.00474 | -4.91984 | 32905 ft | 492 kts | 93° |
| 2026-05-07 12:41 | 62.00494 | -4.84634 | 33018 ft | 497 kts | 92° |
| 2026-05-07 12:42 | 62.00527 | -4.69841 | 33084 ft | 499 kts | 92° |
| 2026-05-07 12:42 | 62.00551 | -4.55178 | 33093 ft | 496 kts | 93° |
| 2026-05-07 12:43 | 62.00559 | -4.40516 | 33106 ft | 497 kts | 93° |
| 2026-05-07 12:43 | 62.00550 | -4.25719 | 33107 ft | 496 kts | 93° |
| 2026-05-07 12:44 | 62.00526 | -4.11122 | 33119 ft | 496 kts | 93° |
| 2026-05-07 12:44 | 62.00507 | -4.03745 | 33002 ft | 499 kts | 93° |
| 2026-05-07 12:44 | 62.00485 | -3.96342 | 32924 ft | 498 kts | 93° |
| 2026-05-07 12:45 | 62.00430 | -3.81649 | 32889 ft | 496 kts | 93° |
| 2026-05-07 12:45 | 62.00357 | -3.66915 | 32888 ft | 498 kts | 94° |
| 2026-05-07 12:46 | 62.00268 | -3.52196 | 32891 ft | 498 kts | 94° |
| 2026-05-07 12:46 | 62.00163 | -3.37475 | 32905 ft | 498 kts | 94° |
| 2026-05-07 12:47 | 62.00042 | -3.22719 | 32900 ft | 499 kts | 94° |
| 2026-05-07 12:47 | 61.99906 | -3.08059 | 32910 ft | 498 kts | 94° |
| 2026-05-07 12:48 | 61.99754 | -2.93331 | 32918 ft | 499 kts | 94° |
| 2026-05-07 12:48 | 61.99586 | -2.78579 | 32921 ft | 499 kts | 94° |
| 2026-05-07 12:49 | 61.99401 | -2.63775 | 32930 ft | 499 kts | 94° |
| 2026-05-07 12:49 | 61.99201 | -2.49024 | 32936 ft | 500 kts | 95° |
| 2026-05-07 12:50 | 61.98985 | -2.34277 | 32942 ft | 500 kts | 95° |
| 2026-05-07 12:50 | 61.98754 | -2.19538 | 32944 ft | 499 kts | 95° |
| 2026-05-07 12:51 | 61.98507 | -2.04789 | 32963 ft | 501 kts | 95° |
| 2026-05-07 12:51 | 61.98243 | -1.89965 | 32968 ft | 500 kts | 95° |
| 2026-05-07 12:52 | 61.97965 | -1.75240 | 32963 ft | 500 kts | 95° |
| 2026-05-07 12:52 | 61.97668 | -1.60366 | 32968 ft | 502 kts | 95° |
| 2026-05-07 12:53 | 61.97357 | -1.45566 | 32977 ft | 501 kts | 95° |
| 2026-05-07 12:53 | 61.97031 | -1.30806 | 32975 ft | 502 kts | 95° |
| 2026-05-07 12:54 | 61.96687 | -1.16010 | 32981 ft | 503 kts | 95° |
| 2026-05-07 12:54 | 61.96325 | -1.01080 | 32985 ft | 503 kts | 95° |
| 2026-05-07 12:55 | 61.95951 | -0.86273 | 32992 ft | 504 kts | 96° |
| 2026-05-07 12:55 | 61.95557 | -0.71375 | 33002 ft | 505 kts | 96° |
| 2026-05-07 12:56 | 61.95148 | -0.56529 | 32997 ft | 504 kts | 96° |
| 2026-05-07 12:56 | 61.94724 | -0.41684 | 33005 ft | 506 kts | 96° |
| 2026-05-07 12:57 | 61.94282 | -0.26793 | 33011 ft | 506 kts | 96° |
| 2026-05-07 12:57 | 61.93822 | -0.11849 | 33023 ft | 506 kts | 96° |
| 2026-05-07 12:58 | 61.93347 | 0.03061 | 33030 ft | 507 kts | 96° |
| 2026-05-07 12:58 | 61.92856 | 0.17932 | 33032 ft | 507 kts | 96° |
| 2026-05-07 12:59 | 61.92347 | 0.32896 | 33028 ft | 507 kts | 96° |
| 2026-05-07 12:59 | 61.91821 | 0.47842 | 33033 ft | 508 kts | 96° |
| 2026-05-07 13:00 | 61.91282 | 0.62727 | 33036 ft | 508 kts | 97° |
| 2026-05-07 13:00 | 61.90723 | 0.77674 | 33038 ft | 508 kts | 97° |
| 2026-05-07 13:01 | 61.90146 | 0.92675 | 33047 ft | 509 kts | 97° |
| 2026-05-07 13:01 | 61.89557 | 1.07566 | 33048 ft | 509 kts | 97° |
| 2026-05-07 13:02 | 61.88949 | 1.22507 | 33052 ft | 509 kts | 97° |
| 2026-05-07 13:02 | 61.88323 | 1.37455 | 33053 ft | 509 kts | 97° |
| 2026-05-07 13:03 | 61.87678 | 1.52451 | 33052 ft | 510 kts | 97° |
| 2026-05-07 13:03 | 61.86993 | 1.67323 | 33056 ft | 509 kts | 99° |
| 2026-05-07 13:04 | 61.85998 | 1.82156 | 33064 ft | 509 kts | 101° |
| 2026-05-07 13:04 | 61.84867 | 1.97010 | 33066 ft | 510 kts | 102° |
| 2026-05-07 13:05 | 61.83694 | 2.11818 | 33067 ft | 510 kts | 102° |
| 2026-05-07 13:05 | 61.82501 | 2.26544 | 33070 ft | 510 kts | 102° |
| 2026-05-07 13:06 | 61.81287 | 2.41300 | 33078 ft | 511 kts | 102° |
| 2026-05-07 13:06 | 61.80046 | 2.56155 | 33074 ft | 512 kts | 102° |
| 2026-05-07 13:07 | 61.78794 | 2.70932 | 33077 ft | 512 kts | 102° |
| 2026-05-07 13:07 | 61.77525 | 2.85729 | 33083 ft | 512 kts | 102° |
| 2026-05-07 13:08 | 61.76237 | 3.00522 | 33093 ft | 513 kts | 103° |
| 2026-05-07 13:08 | 61.74935 | 3.15292 | 33089 ft | 513 kts | 103° |
| 2026-05-07 13:09 | 61.73611 | 3.30124 | 33090 ft | 513 kts | 103° |
| 2026-05-07 13:09 | 61.72276 | 3.44876 | 33098 ft | 514 kts | 103° |
| 2026-05-07 13:10 | 61.70922 | 3.59649 | 33099 ft | 514 kts | 103° |
| 2026-05-07 13:10 | 61.69545 | 3.74490 | 33101 ft | 514 kts | 103° |
| 2026-05-07 13:11 | 61.68160 | 3.89239 | 33103 ft | 515 kts | 103° |
| 2026-05-07 13:11 | 61.66754 | 4.04024 | 33109 ft | 515 kts | 103° |
| 2026-05-07 13:12 | 61.65338 | 4.18728 | 33111 ft | 515 kts | 103° |
| 2026-05-07 13:12 | 61.63890 | 4.33578 | 33117 ft | 515 kts | 103° |
| 2026-05-07 13:13 | 61.62441 | 4.48273 | 33119 ft | 516 kts | 103° |
| 2026-05-07 13:13 | 61.60967 | 4.63043 | 33121 ft | 515 kts | 104° |
| 2026-05-07 13:14 | 61.59485 | 4.77733 | 33126 ft | 516 kts | 104° |
| 2026-05-07 13:14 | 61.57976 | 4.92508 | 33128 ft | 516 kts | 104° |
| 2026-05-07 13:15 | 61.56467 | 5.07129 | 33127 ft | 515 kts | 104° |
| 2026-05-07 13:15 | 61.54933 | 5.21823 | 33127 ft | 516 kts | 104° |
| 2026-05-07 13:16 | 61.53376 | 5.36557 | 33127 ft | 516 kts | 104° |
| 2026-05-07 13:16 | 61.51816 | 5.51149 | 33106 ft | 516 kts | 104° |
| 2026-05-07 13:17 | 61.50234 | 5.65796 | 33105 ft | 515 kts | 104° |
| 2026-05-07 13:17 | 61.48631 | 5.80478 | 33101 ft | 515 kts | 104° |
| 2026-05-07 13:18 | 61.47017 | 5.95109 | 33105 ft | 517 kts | 105° |
| 2026-05-07 13:18 | 61.45389 | 6.09684 | 33111 ft | 516 kts | 105° |
| 2026-05-07 13:19 | 61.43745 | 6.24265 | 33103 ft | 516 kts | 105° |
| 2026-05-07 13:19 | 61.42089 | 6.38807 | 33097 ft | 516 kts | 105° |
| 2026-05-07 13:20 | 61.40408 | 6.53405 | 33108 ft | 517 kts | 105° |
| 2026-05-07 13:20 | 61.38714 | 6.67958 | 33079 ft | 514 kts | 105° |
| 2026-05-07 13:21 | 61.37021 | 6.82381 | 33084 ft | 516 kts | 105° |
| 2026-05-07 13:21 | 61.35288 | 6.96968 | 33081 ft | 516 kts | 105° |
| 2026-05-07 13:22 | 61.33551 | 7.11442 | 33077 ft | 517 kts | 105° |
| 2026-05-07 13:22 | 61.31802 | 7.25902 | 33078 ft | 516 kts | 105° |
| 2026-05-07 13:23 | 61.30028 | 7.40401 | 33076 ft | 516 kts | 106° |
| 2026-05-07 13:23 | 61.28252 | 7.54781 | 33076 ft | 516 kts | 106° |
| 2026-05-07 13:24 | 61.26749 | 7.66844 | 33081 ft | 516 kts | 106° |
| 2026-05-07 13:24 | 61.24636 | 7.83630 | 33117 ft | 516 kts | 106° |
| 2026-05-07 13:25 | 61.23105 | 7.95689 | 33123 ft | 517 kts | 106° |
| 2026-05-07 13:25 | 61.21261 | 8.10086 | 33130 ft | 516 kts | 106° |
| 2026-05-07 13:26 | 61.19403 | 8.24435 | 33122 ft | 517 kts | 106° |
| 2026-05-07 13:26 | 61.17523 | 8.38831 | 33125 ft | 516 kts | 107° |
| 2026-05-07 13:27 | 61.15630 | 8.53187 | 33126 ft | 516 kts | 107° |
| 2026-05-07 13:27 | 61.13729 | 8.67482 | 33128 ft | 517 kts | 107° |
| 2026-05-07 13:28 | 61.11812 | 8.81764 | 33104 ft | 516 kts | 107° |
| 2026-05-07 13:28 | 61.09865 | 8.96125 | 33097 ft | 516 kts | 107° |
| 2026-05-07 13:29 | 61.07921 | 9.10340 | 33096 ft | 517 kts | 107° |
| 2026-05-07 13:29 | 61.05950 | 9.24603 | 33093 ft | 516 kts | 107° |
| 2026-05-07 13:30 | 61.04380 | 9.39053 | 33085 ft | 517 kts | 101° |
| 2026-05-07 13:30 | 61.03156 | 9.53675 | 33086 ft | 517 kts | 99° |
| 2026-05-07 13:31 | 61.01990 | 9.68314 | 33080 ft | 517 kts | 99° |
| 2026-05-07 13:31 | 61.00828 | 9.82925 | 33080 ft | 517 kts | 99° |
| 2026-05-07 13:32 | 60.99658 | 9.97473 | 33072 ft | 517 kts | 99° |
| 2026-05-07 13:32 | 60.98471 | 10.12063 | 33080 ft | 517 kts | 99° |
| 2026-05-07 13:33 | 60.97261 | 10.26709 | 33075 ft | 516 kts | 100° |
| 2026-05-07 13:33 | 60.96044 | 10.41249 | 33075 ft | 517 kts | 100° |
| 2026-05-07 13:34 | 60.94178 | 10.63137 | 33077 ft | 516 kts | 100° |
| 2026-05-07 13:35 | 60.92924 | 10.77584 | 33076 ft | 516 kts | 100° |
| 2026-05-07 13:35 | 60.91647 | 10.92119 | 33072 ft | 517 kts | 100° |
| 2026-05-07 13:36 | 60.90356 | 11.06622 | 33075 ft | 516 kts | 101° |
| 2026-05-07 13:36 | 60.89049 | 11.21095 | 33074 ft | 516 kts | 101° |
| 2026-05-07 13:37 | 60.87724 | 11.35609 | 33070 ft | 516 kts | 101° |
| 2026-05-07 13:37 | 60.86392 | 11.50021 | 33073 ft | 516 kts | 101° |
| 2026-05-07 13:38 | 60.85036 | 11.64502 | 33078 ft | 516 kts | 101° |
| 2026-05-07 13:38 | 60.83666 | 11.78969 | 33075 ft | 516 kts | 101° |
| 2026-05-07 13:39 | 60.82286 | 11.93356 | 33075 ft | 516 kts | 101° |
| 2026-05-07 13:39 | 60.80881 | 12.07816 | 33067 ft | 516 kts | 101° |
| 2026-05-07 13:40 | 60.79471 | 12.22167 | 33071 ft | 516 kts | 102° |
| 2026-05-07 13:40 | 60.78036 | 12.36606 | 33073 ft | 516 kts | 102° |
| 2026-05-07 13:41 | 60.76590 | 12.50974 | 33066 ft | 516 kts | 102° |
| 2026-05-07 13:41 | 60.75128 | 12.65340 | 33070 ft | 515 kts | 102° |
| 2026-05-07 13:42 | 60.73653 | 12.79667 | 33065 ft | 516 kts | 102° |
| 2026-05-07 13:42 | 60.72163 | 12.93987 | 33068 ft | 516 kts | 102° |
| 2026-05-07 13:43 | 60.70661 | 13.08253 | 33064 ft | 515 kts | 102° |
| 2026-05-07 13:43 | 60.69139 | 13.22565 | 33068 ft | 515 kts | 102° |
| 2026-05-07 13:44 | 60.67608 | 13.36811 | 33067 ft | 516 kts | 103° |
| 2026-05-07 13:44 | 60.66057 | 13.51074 | 33059 ft | 515 kts | 103° |
| 2026-05-07 13:45 | 60.64488 | 13.65339 | 33066 ft | 515 kts | 103° |
| 2026-05-07 13:45 | 60.62901 | 13.79622 | 33063 ft | 515 kts | 103° |
| 2026-05-07 13:46 | 60.61312 | 13.93781 | 33063 ft | 514 kts | 103° |
| 2026-05-07 13:46 | 60.59699 | 14.07999 | 33060 ft | 514 kts | 103° |
| 2026-05-07 13:47 | 60.58074 | 14.22174 | 33070 ft | 515 kts | 103° |
| 2026-05-07 13:47 | 60.56442 | 14.36283 | 33063 ft | 514 kts | 103° |
| 2026-05-07 13:48 | 60.54793 | 14.50382 | 33068 ft | 514 kts | 103° |
| 2026-05-07 13:48 | 60.53124 | 14.64500 | 33070 ft | 515 kts | 104° |
| 2026-05-07 13:49 | 60.51438 | 14.78640 | 33068 ft | 514 kts | 104° |
| 2026-05-07 13:49 | 60.49749 | 14.92663 | 33066 ft | 514 kts | 104° |
| 2026-05-07 13:50 | 60.48038 | 15.06724 | 33061 ft | 515 kts | 104° |
| 2026-05-07 13:50 | 60.46307 | 15.20814 | 33048 ft | 514 kts | 104° |
| 2026-05-07 13:51 | 60.44566 | 15.34857 | 33042 ft | 514 kts | 104° |
| 2026-05-07 13:51 | 60.42812 | 15.48869 | 33049 ft | 514 kts | 104° |
| 2026-05-07 13:52 | 60.41043 | 15.62865 | 33047 ft | 513 kts | 105° |
| 2026-05-07 13:52 | 60.39259 | 15.76851 | 33051 ft | 513 kts | 105° |
| 2026-05-07 13:53 | 60.37462 | 15.90805 | 33053 ft | 513 kts | 105° |
| 2026-05-07 13:53 | 60.35647 | 16.04769 | 33056 ft | 512 kts | 105° |
| 2026-05-07 13:54 | 60.33830 | 16.18621 | 33065 ft | 513 kts | 105° |
| 2026-05-07 13:54 | 60.31988 | 16.32543 | 33066 ft | 512 kts | 105° |
| 2026-05-07 13:55 | 60.30146 | 16.46332 | 33062 ft | 511 kts | 106° |
| 2026-05-07 13:55 | 60.28272 | 16.60226 | 33063 ft | 512 kts | 106° |
| 2026-05-07 13:56 | 60.26394 | 16.74021 | 33062 ft | 511 kts | 106° |
| 2026-05-07 13:56 | 60.24502 | 16.87795 | 33061 ft | 511 kts | 106° |
| 2026-05-07 13:57 | 60.22594 | 17.01559 | 33064 ft | 511 kts | 106° |
| 2026-05-07 13:57 | 60.20680 | 17.15317 | 33064 ft | 510 kts | 106° |
| 2026-05-07 13:58 | 60.18893 | 17.29104 | 33066 ft | 510 kts | 105° |
| 2026-05-07 13:58 | 60.17145 | 17.42957 | 33065 ft | 510 kts | 105° |
| 2026-05-07 13:59 | 60.15413 | 17.56689 | 33073 ft | 509 kts | 105° |
| 2026-05-07 13:59 | 60.13657 | 17.70498 | 33069 ft | 508 kts | 105° |
| 2026-05-07 14:00 | 60.11902 | 17.84169 | 33069 ft | 509 kts | 105° |
| 2026-05-07 14:00 | 60.10124 | 17.97895 | 33081 ft | 508 kts | 105° |
| 2026-05-07 14:01 | 60.08331 | 18.11589 | 33082 ft | 507 kts | 105° |
| 2026-05-07 14:01 | 60.06527 | 18.25239 | 33081 ft | 507 kts | 106° |
| 2026-05-07 14:02 | 60.04706 | 18.38905 | 33078 ft | 506 kts | 106° |
| 2026-05-07 14:02 | 60.02881 | 18.52469 | 33095 ft | 506 kts | 106° |
| 2026-05-07 14:03 | 60.01036 | 18.66057 | 33088 ft | 506 kts | 107° |
| 2026-05-07 14:03 | 59.99185 | 18.79567 | 33088 ft | 505 kts | 107° |
| 2026-05-07 14:04 | 59.97318 | 18.93088 | 33090 ft | 505 kts | 107° |
| 2026-05-07 14:04 | 59.95438 | 19.06590 | 33104 ft | 505 kts | 107° |
| 2026-05-07 14:05 | 59.93541 | 19.20095 | 33105 ft | 504 kts | 107° |
| 2026-05-07 14:05 | 59.91642 | 19.33494 | 33095 ft | 505 kts | 108° |
| 2026-05-07 14:06 | 59.89716 | 19.46973 | 33101 ft | 504 kts | 108° |
| 2026-05-07 14:06 | 59.87781 | 19.60406 | 33100 ft | 504 kts | 108° |
| 2026-05-07 14:07 | 59.85833 | 19.73822 | 33103 ft | 503 kts | 108° |
| 2026-05-07 14:07 | 59.83881 | 19.87159 | 33101 ft | 503 kts | 108° |
| 2026-05-07 14:08 | 59.81913 | 20.00502 | 33100 ft | 502 kts | 109° |
| 2026-05-07 14:08 | 59.79941 | 20.13751 | 33104 ft | 502 kts | 109° |
| 2026-05-07 14:09 | 59.77953 | 20.27000 | 33105 ft | 502 kts | 109° |
| 2026-05-07 14:09 | 59.75943 | 20.40300 | 33104 ft | 501 kts | 109° |
| 2026-05-07 14:10 | 59.73935 | 20.53482 | 33104 ft | 500 kts | 110° |
| 2026-05-07 14:10 | 59.71912 | 20.66654 | 33102 ft | 500 kts | 110° |
| 2026-05-07 14:11 | 59.69870 | 20.79849 | 33102 ft | 500 kts | 110° |
| 2026-05-07 14:11 | 59.67822 | 20.92984 | 33102 ft | 499 kts | 110° |
| 2026-05-07 14:12 | 59.65768 | 21.06058 | 33100 ft | 499 kts | 111° |
| 2026-05-07 14:12 | 59.63701 | 21.19114 | 33102 ft | 499 kts | 111° |
| 2026-05-07 14:13 | 59.61621 | 21.32159 | 33086 ft | 490 kts | 111° |
| 2026-05-07 14:13 | 59.60607 | 21.38519 | 32676 ft | 474 kts | 111° |
| 2026-05-07 14:13 | 59.59629 | 21.44633 | 32217 ft | 462 kts | 111° |
| 2026-05-07 14:13 | 59.58674 | 21.50574 | 31773 ft | 451 kts | 112° |
| 2026-05-07 14:14 | 59.57740 | 21.56363 | 31342 ft | 440 kts | 112° |
| 2026-05-07 14:14 | 59.56808 | 21.62103 | 30858 ft | 432 kts | 112° |
| 2026-05-07 14:14 | 59.55898 | 21.67679 | 30273 ft | 428 kts | 112° |
| 2026-05-07 14:14 | 59.54986 | 21.73235 | 29600 ft | 423 kts | 112° |
| 2026-05-07 14:15 | 59.54084 | 21.78699 | 28949 ft | 419 kts | 112° |
| 2026-05-07 14:15 | 59.53184 | 21.84131 | 28304 ft | 414 kts | 112° |
| 2026-05-07 14:15 | 59.52298 | 21.89463 | 27672 ft | 410 kts | 112° |
| 2026-05-07 14:15 | 59.51417 | 21.94753 | 27066 ft | 406 kts | 112° |
| 2026-05-07 14:16 | 59.50532 | 22.00049 | 26457 ft | 402 kts | 112° |
| 2026-05-07 14:16 | 59.49664 | 22.05235 | 25870 ft | 398 kts | 112° |
| 2026-05-07 14:16 | 59.48801 | 22.10373 | 25301 ft | 395 kts | 112° |
| 2026-05-07 14:16 | 59.48229 | 22.13772 | 24922 ft | 393 kts | 112° |
| 2026-05-07 14:17 | 59.47374 | 22.18839 | 24368 ft | 389 kts | 112° |
| 2026-05-07 14:17 | 59.46240 | 22.25535 | 23627 ft | 385 kts | 112° |
| 2026-05-07 14:17 | 59.45677 | 22.28853 | 23211 ft | 383 kts | 112° |
| 2026-05-07 14:17 | 59.44836 | 22.33796 | 22622 ft | 378 kts | 112° |
| 2026-05-07 14:18 | 59.44002 | 22.38689 | 22037 ft | 374 kts | 112° |
| 2026-05-07 14:18 | 59.43175 | 22.43533 | 21473 ft | 370 kts | 112° |
| 2026-05-07 14:18 | 59.42366 | 22.48255 | 20923 ft | 366 kts | 112° |
| 2026-05-07 14:18 | 59.41559 | 22.52954 | 20378 ft | 362 kts | 112° |
| 2026-05-07 14:19 | 59.40755 | 22.57626 | 19842 ft | 359 kts | 112° |
| 2026-05-07 14:19 | 59.39957 | 22.62250 | 19315 ft | 355 kts | 112° |
| 2026-05-07 14:19 | 59.39164 | 22.66833 | 18804 ft | 352 kts | 111° |
| 2026-05-07 14:19 | 59.38389 | 22.71308 | 18291 ft | 348 kts | 111° |
| 2026-05-07 14:20 | 59.37609 | 22.75794 | 17716 ft | 344 kts | 111° |
| 2026-05-07 14:20 | 59.36837 | 22.80230 | 17172 ft | 340 kts | 111° |
| 2026-05-07 14:20 | 59.36085 | 22.84553 | 16637 ft | 337 kts | 110° |
| 2026-05-07 14:20 | 59.35730 | 22.89069 | 16092 ft | 335 kts | 89° |
| 2026-05-07 14:21 | 59.35897 | 22.93618 | 15578 ft | 332 kts | 84° |
| 2026-05-07 14:21 | 59.36153 | 22.98033 | 15085 ft | 328 kts | 83° |
| 2026-05-07 14:21 | 59.36430 | 23.02450 | 14590 ft | 324 kts | 82° |
| 2026-05-07 14:21 | 59.36703 | 23.06855 | 14106 ft | 320 kts | 83° |
| 2026-05-07 14:22 | 59.36954 | 23.11130 | 13610 ft | 317 kts | 83° |
| 2026-05-07 14:22 | 59.37189 | 23.15419 | 13082 ft | 313 kts | 83° |
| 2026-05-07 14:22 | 59.37401 | 23.19618 | 12573 ft | 309 kts | 84° |
| 2026-05-07 14:22 | 59.37597 | 23.23819 | 12070 ft | 306 kts | 84° |
| 2026-05-07 14:23 | 59.37775 | 23.27927 | 11581 ft | 302 kts | 85° |
| 2026-05-07 14:23 | 59.37940 | 23.32027 | 11082 ft | 299 kts | 85° |
| 2026-05-07 14:23 | 59.38093 | 23.36033 | 10623 ft | 295 kts | 85° |
| 2026-05-07 14:23 | 59.38238 | 23.40062 | 10155 ft | 291 kts | 85° |
| 2026-05-07 14:24 | 59.38374 | 23.43974 | 9663 ft | 288 kts | 85° |
| 2026-05-07 14:24 | 59.38504 | 23.47886 | 9178 ft | 284 kts | 85° |
| 2026-05-07 14:24 | 59.38626 | 23.51691 | 8697 ft | 280 kts | 85° |
| 2026-05-07 14:24 | 59.38745 | 23.55505 | 8218 ft | 277 kts | 85° |
| 2026-05-07 14:25 | 59.38857 | 23.59221 | 7748 ft | 273 kts | 85° |
| 2026-05-07 14:25 | 59.38966 | 23.62931 | 7317 ft | 268 kts | 85° |
| 2026-05-07 14:25 | 59.39073 | 23.66522 | 6894 ft | 263 kts | 85° |
| 2026-05-07 14:25 | 59.39183 | 23.70097 | 6443 ft | 260 kts | 85° |
| 2026-05-07 14:26 | 59.39289 | 23.73588 | 5959 ft | 257 kts | 85° |
| 2026-05-07 14:26 | 59.39393 | 23.77098 | 5468 ft | 254 kts | 85° |
| 2026-05-07 14:26 | 59.39494 | 23.80524 | 4987 ft | 252 kts | 85° |
| 2026-05-07 14:26 | 59.39594 | 23.83960 | 4504 ft | 250 kts | 85° |
| 2026-05-07 14:27 | 59.39692 | 23.87327 | 4011 ft | 248 kts | 85° |
| 2026-05-07 14:27 | 59.39790 | 23.90709 | 3543 ft | 246 kts | 85° |
| 2026-05-07 14:27 | 59.39886 | 23.94054 | 3061 ft | 244 kts | 85° |
| 2026-05-07 14:27 | 59.39981 | 23.97363 | 2608 ft | 248 kts | 85° |
| 2026-05-07 14:28 | 59.40077 | 24.00731 | 2385 ft | 241 kts | 85° |
| 2026-05-07 14:28 | 59.40165 | 24.03977 | 2284 ft | 239 kts | 85° |
| 2026-05-07 14:28 | 59.40254 | 24.07257 | 2243 ft | 240 kts | 85° |
| 2026-05-07 14:28 | 59.40343 | 24.10507 | 2229 ft | 240 kts | 85° |
| 2026-05-07 14:29 | 59.40433 | 24.13750 | 2223 ft | 240 kts | 85° |
| 2026-05-07 14:29 | 59.40520 | 24.17032 | 2225 ft | 240 kts | 85° |
| 2026-05-07 14:29 | 59.40602 | 24.20224 | 2238 ft | 226 kts | 85° |
| 2026-05-07 14:29 | 59.40685 | 24.23249 | 2231 ft | 226 kts | 85° |
| 2026-05-07 14:30 | 59.40758 | 24.26256 | 2225 ft | 219 kts | 85° |
| 2026-05-07 14:30 | 59.40830 | 24.29239 | 2234 ft | 218 kts | 86° |
| 2026-05-07 14:30 | 59.40908 | 24.32245 | 2269 ft | 219 kts | 85° |
| 2026-05-07 14:30 | 59.40986 | 24.35198 | 2294 ft | 219 kts | 85° |
| 2026-05-07 14:31 | 59.41059 | 24.38178 | 2244 ft | 217 kts | 85° |
| 2026-05-07 14:31 | 59.41128 | 24.41116 | 2234 ft | 218 kts | 85° |
| 2026-05-07 14:31 | 59.41200 | 24.44097 | 2232 ft | 216 kts | 85° |
| 2026-05-07 14:31 | 59.41292 | 24.47043 | 2270 ft | 217 kts | 83° |
| 2026-05-07 14:32 | 59.41383 | 24.50015 | 2256 ft | 218 kts | 86° |
| 2026-05-07 14:32 | 59.41420 | 24.52973 | 2241 ft | 218 kts | 87° |
| 2026-05-07 14:32 | 59.41420 | 24.55976 | 2280 ft | 219 kts | 88° |
| 2026-05-07 14:32 | 59.41401 | 24.58931 | 2296 ft | 218 kts | 89° |
| 2026-05-07 14:33 | 59.41380 | 24.61939 | 2210 ft | 221 kts | 88° |
| 2026-05-07 14:33 | 59.41367 | 24.64930 | 1882 ft | 219 kts | 88° |
| 2026-05-07 14:33 | 59.41360 | 24.67906 | 1583 ft | 214 kts | 88° |
| 2026-05-07 14:33 | 59.41355 | 24.70793 | 1259 ft | 210 kts | 88° |
| 2026-05-07 14:34 | 59.41350 | 24.73592 | 989 ft | 192 kts | 87° |
| 2026-05-07 14:34 | 59.41339 | 24.76044 | 719 ft | 175 kts | 87° |
| 2026-05-07 14:34 | 59.41335 | 24.78379 | 417 ft | 172 kts | 87° |
| 2026-05-07 14:34 | 59.41325 | 24.80494 | 212 ft | 138 kts | 87° |
| 2026-05-07 14:35 | 59.41331 | 24.82150 | 140 ft | 98 kts | 90° |
| 2026-05-07 14:35 | 59.41329 | 24.83335 | 146 ft | 75 kts | 90° |
| 2026-05-07 14:35 | 59.41328 | 24.84209 | 140 ft | 59 kts | 91° |
| 2026-05-07 14:35 | 59.41326 | 24.84896 | 143 ft | 23 kts | 86° |
| 2026-05-07 14:36 | 59.41417 | 24.84999 | 144 ft | 13 kts | 0° |
| 2026-05-07 14:36 | 59.41448 | 24.84992 | 144 ft | 0 kts | 345° |
| 2026-05-07 14:36 | 59.41472 | 24.84971 | 144 ft | 9 kts | 326° |
| 2026-05-07 14:36 | 59.41495 | 24.84765 | 142 ft | 22 kts | 271° |
| 2026-05-07 14:37 | 59.41495 | 24.84459 | 142 ft | 21 kts | 270° |
| 2026-05-07 14:37 | 59.41497 | 24.84001 | 143 ft | 12 kts | 270° |
| 2026-05-07 14:37 | 59.41498 | 24.83841 | 141 ft | 11 kts | 270° |
| 2026-05-07 14:38 | 59.41499 | 24.83692 | 142 ft | 10 kts | 271° |
| 2026-05-07 14:38 | 59.41499 | 24.83560 | 142 ft | 10 kts | 269° |
| 2026-05-07 14:38 | 59.41497 | 24.83385 | 141 ft | 17 kts | 269° |
| 2026-05-07 14:38 | 59.41499 | 24.83109 | 142 ft | 23 kts | 271° |
| 2026-05-07 14:39 | 59.41501 | 24.82754 | 140 ft | 29 kts | 270° |
| 2026-05-07 14:39 | 59.41503 | 24.82347 | 140 ft | 31 kts | 270° |
| 2026-05-07 14:39 | 59.41502 | 24.81941 | 140 ft | 29 kts | 271° |
| 2026-05-07 14:39 | 59.41503 | 24.81574 | 140 ft | 25 kts | 270° |
| 2026-05-07 14:40 | 59.41506 | 24.81255 | 139 ft | 22 kts | 269° |
| 2026-05-07 14:40 | 59.41505 | 24.80991 | 140 ft | 18 kts | 270° |
| 2026-05-07 14:40 | 59.41506 | 24.80761 | 139 ft | 16 kts | 271° |
| 2026-05-07 14:40 | 59.41516 | 24.80559 | 140 ft | 14 kts | 300° |
| 2026-05-07 14:41 | 59.41602 | 24.80507 | 141 ft | 13 kts | 1° |
| 2026-05-07 14:41 | 59.41677 | 24.80504 | 145 ft | 9 kts | 347° |
| 2026-05-07 14:41 | 59.41729 | 24.80438 | 147 ft | 8 kts | 302° |
| 2026-05-07 14:41 | 59.41741 | 24.80321 | 146 ft | 10 kts | 276° |
| 2026-05-07 14:42 | 59.41736 | 24.80201 | 146 ft | 6 kts | 221° |
| 2026-05-07 14:42 | 59.41693 | 24.80194 | 144 ft | 6 kts | 178° |
| 2026-05-07 14:42 | 59.41682 | 24.80194 | 144 ft | 0 kts | 179° |